Time;durP1;ratioP1;P1;durP2;ratioP2;P2;SDS_P1;SDS_P2;PMS_P1;PMS_P2;Temp;Humidity;BMP_temperature;BMP_pressure;BME280_temperature;BME280_humidity;BME280_pressure;Samples;Min_cycle;Max_cycle;Signal;HPM_P1;HPM_P2
2022/06/30 00:00:16;;;;;;;;;7.00;7.00;;;26.92;97547.33;;;;119285;1187;25442;-62
2022/06/30 00:03:02;;;;;;;;;9.25;8.00;;;26.94;97546.75;;;;119271;1187;25159;-62
2022/06/30 00:05:30;;;;;;;;;10.75;8.75;;;26.94;97541.84;;;;119284;1187;24980;-61
2022/06/30 00:07:58;;;;;;;;;9.25;9.25;;;26.90;97540.79;;;;119237;1188;25382;-61
2022/06/30 00:10:26;;;;;;;;;8.00;7.50;;;26.92;97536.11;;;;119186;1186;25097;-61
2022/06/30 00:12:54;;;;;;;;;11.00;10.00;;;26.92;97531.98;;;;119191;1188;25797;-61
2022/06/30 00:15:22;;;;;;;;;12.50;9.50;;;26.91;97528.07;;;;119183;1187;24834;-61
2022/06/30 00:17:50;;;;;;;;;10.33;8.67;;;26.88;97524.87;;;;119164;1188;25859;-61
2022/06/30 00:20:20;;;;;;;;;10.50;10.50;;;26.86;97524.23;;;;119133;1187;25422;-61
2022/06/30 00:22:48;;;;;;;;;11.25;9.00;;;26.85;97526.61;;;;119222;1187;24857;-60
2022/06/30 00:25:17;;;;;;;;;11.00;9.00;;;26.80;97525.48;;;;119279;1187;25885;-61
2022/06/30 00:27:46;;;;;;;;;9.50;6.75;;;26.77;97523.91;;;;119338;1187;25470;-61
2022/06/30 00:30:14;;;;;;;;;9.25;8.25;;;26.71;97517.83;;;;119290;1186;25018;-63
2022/06/30 00:32:42;;;;;;;;;10.00;9.75;;;26.72;97519.45;;;;119205;1187;24727;-60
2022/06/30 00:35:10;;;;;;;;;11.00;9.50;;;26.68;97518.45;;;;119182;1187;24916;-60
2022/06/30 00:37:38;;;;;;;;;9.75;8.50;;;26.68;97516.70;;;;119042;1189;25457;-60
2022/06/30 00:40:07;;;;;;;;;13.25;6.75;;;26.63;97514.68;;;;119153;1187;25769;-60
2022/06/30 00:42:35;;;;;;;;;6.50;6.50;;;26.64;97513.69;;;;119186;1188;25256;-61
2022/06/30 00:45:04;;;;;;;;;10.67;8.00;;;26.64;97512.03;;;;119182;1187;25202;-61
2022/06/30 00:47:32;;;;;;;;;11.25;9.00;;;26.66;97508.28;;;;119097;1188;24748;-63
2022/06/30 00:50:01;;;;;;;;;12.50;9.00;;;26.60;97504.13;;;;118999;1188;25359;-65
2022/06/30 00:52:30;;;;;;;;;9.00;9.00;;;26.58;97504.41;;;;119154;1188;26083;-61
2022/06/30 00:54:58;;;;;;;;;12.00;8.50;;;26.60;97506.59;;;;119148;1189;26383;-61
2022/06/30 00:57:26;;;;;;;;;7.75;7.75;;;26.60;97506.98;;;;119253;1188;24884;-61
2022/06/30 00:59:57;;;;;;;;;9.00;7.50;;;26.57;97506.06;;;;119059;1188;25183;-61
2022/06/30 01:02:25;;;;;;;;;9.00;6.50;;;26.57;97510.75;;;;119277;1187;24848;-61
2022/06/30 01:04:55;;;;;;;;;7.50;7.00;;;26.54;97513.48;;;;119250;1187;25058;-61
2022/06/30 01:07:24;;;;;;;;;10.25;8.75;;;26.54;97511.20;;;;119251;1187;25871;-61
2022/06/30 01:12:47;;;;;;;;;11.25;10.25;;;26.49;97513.30;;;;119171;1189;25375;-63
2022/06/30 01:15:20;;;;;;;;;14.00;10.67;;;26.44;97510.77;;;;119287;1186;25462;-61
2022/06/30 01:17:49;;;;;;;;;11.33;10.33;;;26.37;97510.48;;;;119094;1189;24974;-60
2022/06/30 01:20:25;;;;;;;;;12.25;9.25;;;26.30;97513.36;;;;119406;1187;25185;-60
2022/06/30 01:22:53;;;;;;;;;9.00;7.75;;;26.28;97511.64;;;;119307;1187;25275;-62
2022/06/30 01:25:21;;;;;;;;;10.50;10.00;;;26.29;97511.41;;;;119284;1187;24830;-62
2022/06/30 01:27:49;;;;;;;;;8.75;8.75;;;26.25;97510.40;;;;119280;1186;25655;-61
2022/06/30 01:30:16;;;;;;;;;8.00;8.00;;;26.22;97508.70;;;;119310;1188;24883;-61
2022/06/30 01:32:44;;;;;;;;;9.00;9.00;;;26.20;97506.27;;;;119299;1187;25457;-61
2022/06/30 01:35:12;;;;;;;;;12.00;9.75;;;26.17;97503.55;;;;119276;1187;24862;-62
2022/06/30 01:37:53;;;;;;;;;9.50;9.50;;;26.19;97504.67;;;;119281;1186;25467;-62
2022/06/30 01:40:22;;;;;;;;;9.50;9.50;;;26.18;97505.45;;;;119251;1187;25210;-60
2022/06/30 01:42:51;;;;;;;;;11.25;10.50;;;26.20;97501.64;;;;119255;1187;25923;-61
2022/06/30 01:45:20;;;;;;;;;13.75;11.25;;;26.21;97503.66;;;;119259;1188;26435;-61
2022/06/30 01:47:50;;;;;;;;;9.75;9.00;;;26.21;97504.77;;;;119273;1187;25237;-62
2022/06/30 01:50:25;;;;;;;;;9.67;8.33;;;26.19;97499.45;;;;119277;1187;24883;-63
2022/06/30 01:52:53;;;;;;;;;13.25;9.75;;;26.21;97499.87;;;;119307;1187;25756;-64
2022/06/30 01:55:21;;;;;;;;;9.50;7.50;;;26.23;97501.29;;;;119304;1187;24736;-60
2022/06/30 01:57:50;;;;;;;;;12.00;11.25;;;26.19;97503.48;;;;119264;1188;25778;-63
2022/06/30 02:00:20;;;;;;;;;10.25;6.50;;;26.19;97505.00;;;;119302;1188;25425;-62
2022/06/30 02:02:48;;;;;;;;;9.00;9.00;;;26.19;97509.05;;;;119074;1188;25099;-61
2022/06/30 02:05:17;;;;;;;;;8.50;8.25;;;26.17;97512.88;;;;119293;1188;25147;-61
2022/06/30 02:07:45;;;;;;;;;8.75;8.00;;;26.12;97514.39;;;;119281;1187;25242;-61
2022/06/30 02:10:16;;;;;;;;;12.67;11.33;;;26.11;97513.43;;;;119040;1188;25533;-60
2022/06/30 02:12:45;;;;;;;;;9.50;8.75;;;26.10;97512.14;;;;119251;1186;25392;-61
2022/06/30 02:15:18;;;;;;;;;10.50;8.75;;;26.11;97513.07;;;;119065;1188;25686;-61
2022/06/30 02:17:48;;;;;;;;;8.50;7.25;;;26.09;97518.90;;;;119252;1187;25650;-61
2022/06/30 02:20:21;;;;;;;;;6.75;5.25;;;26.07;97517.55;;;;119178;1187;25813;-61
2022/06/30 02:22:52;;;;;;;;;4.75;4.75;;;26.08;97523.84;;;;119288;1188;25490;-63
2022/06/30 02:25:20;;;;;;;;;9.25;8.25;;;26.07;97520.71;;;;119062;1188;24932;-64
2022/06/30 02:27:48;;;;;;;;;10.25;10.00;;;26.00;97522.56;;;;119270;1187;25186;-63
2022/06/30 02:30:16;;;;;;;;;13.50;11.00;;;25.94;97524.80;;;;119270;1187;24922;-65
2022/06/30 02:32:45;;;;;;;;;6.75;5.00;;;25.93;97522.06;;;;119288;1188;25427;-67
2022/06/30 02:35:13;;;;;;;;;12.75;10.50;;;25.93;97525.64;;;;119292;1187;26559;-63
2022/06/30 02:37:41;;;;;;;;;11.00;9.67;;;25.88;97523.73;;;;119295;1188;25190;-60
2022/06/30 02:40:10;;;;;;;;;8.00;8.00;;;25.89;97526.33;;;;119204;1187;24781;-60
2022/06/30 02:42:38;;;;;;;;;9.00;9.00;;;25.86;97524.23;;;;119174;1187;24788;-60
2022/06/30 02:45:07;;;;;;;;;8.75;8.75;;;25.84;97523.64;;;;119196;1187;25692;-60
2022/06/30 02:47:37;;;;;;;;;12.50;8.75;;;25.80;97525.46;;;;119181;1187;24899;-60
2022/06/30 02:50:08;;;;;;;;;6.75;5.50;;;25.76;97526.05;;;;119181;1188;25318;-60
2022/06/30 02:52:36;;;;;;;;;11.25;8.75;;;25.77;97526.77;;;;119155;1188;25662;-60
2022/06/30 02:55:06;;;;;;;;;9.00;9.00;;;25.72;97527.02;;;;119188;1187;25468;-63
2022/06/30 02:57:35;;;;;;;;;10.25;10.25;;;25.68;97525.39;;;;119188;1187;24939;-63
2022/06/30 03:00:06;;;;;;;;;13.00;10.25;;;25.70;97522.81;;;;119247;1187;25797;-65
2022/06/30 03:02:34;;;;;;;;;10.00;8.50;;;25.68;97522.10;;;;119275;1188;25420;-66
2022/06/30 03:05:02;;;;;;;;;10.00;9.75;;;26.00;97525.67;;;;119220;1188;25477;-64
2022/06/30 03:07:30;;;;;;;;;9.00;9.00;;;26.25;97522.28;;;;119249;1187;25422;-67
2022/06/30 03:09:58;;;;;;;;;8.25;8.25;;;26.43;97521.34;;;;119066;1188;25299;-64
2022/06/30 03:12:28;;;;;;;;;11.75;10.50;;;26.64;97523.75;;;;119144;1188;25460;-63
2022/06/30 03:14:56;;;;;;;;;8.25;8.00;;;26.79;97523.09;;;;119159;1187;25420;-64
2022/06/30 03:17:25;;;;;;;;;7.75;6.25;;;26.96;97526.25;;;;119137;1188;25596;-60
2022/06/30 03:19:53;;;;;;;;;13.75;10.50;;;27.10;97526.48;;;;119154;1187;25561;-63
2022/06/30 03:22:21;;;;;;;;;10.75;9.00;;;27.22;97528.39;;;;119030;1189;25045;-64
2022/06/30 03:24:48;;;;;;;;;10.25;9.00;;;27.31;97527.89;;;;119267;1187;25299;-63
2022/06/30 03:27:17;;;;;;;;;9.50;9.50;;;27.41;97530.09;;;;119305;1187;25216;-64
2022/06/30 03:29:45;;;;;;;;;14.00;9.50;;;27.50;97530.26;;;;119229;1186;25153;-62
2022/06/30 03:32:12;;;;;;;;;11.25;9.50;;;27.60;97531.52;;;;119284;1188;25008;-64
2022/06/30 03:34:40;;;;;;;;;15.50;13.25;;;27.68;97530.50;;;;119275;1187;24766;-62
2022/06/30 03:37:08;;;;;;;;;14.50;11.75;;;27.77;97534.46;;;;119270;1187;25193;-63
2022/06/30 03:39:36;;;;;;;;;13.00;13.00;;;27.85;97536.33;;;;119278;1187;25644;-65
2022/06/30 03:42:05;;;;;;;;;12.25;10.50;;;27.92;97540.35;;;;119156;1187;24975;-65
2022/06/30 03:44:33;;;;;;;;;16.75;14.75;;;28.01;97538.52;;;;119133;1188;26313;-66
2022/06/30 03:47:01;;;;;;;;;16.75;14.00;;;28.08;97538.94;;;;119143;1186;25175;-65
2022/06/30 03:49:29;;;;;;;;;13.75;13.75;;;28.13;97539.07;;;;119188;1187;26452;-64
2022/06/30 03:51:57;;;;;;;;;13.50;13.00;;;28.22;97541.49;;;;119161;1188;26069;-65
2022/06/30 03:54:25;;;;;;;;;5.75;5.75;;;28.26;97542.04;;;;119162;1187;25550;-67
2022/06/30 03:56:53;;;;;;;;;14.33;11.67;;;28.32;97541.73;;;;119032;1189;25064;-68
2022/06/30 03:59:21;;;;;;;;;10.25;8.00;;;28.35;97539.45;;;;119153;1187;24893;-66
2022/06/30 04:01:49;;;;;;;;;13.00;11.25;;;28.41;97535.40;;;;119285;1186;25332;-67
2022/06/30 04:04:17;;;;;;;;;16.25;14.75;;;28.44;97534.27;;;;119295;1186;25036;-67
2022/06/30 04:06:46;;;;;;;;;14.50;14.50;;;28.51;97535.58;;;;119287;1187;25891;-67
2022/06/30 04:09:14;;;;;;;;;14.75;13.50;;;28.54;97530.64;;;;119284;1187;25149;-66
2022/06/30 04:11:42;;;;;;;;;16.25;16.25;;;28.59;97526.73;;;;119161;1188;25688;-65
2022/06/30 04:14:09;;;;;;;;;15.50;11.50;;;28.65;97524.58;;;;119148;1187;25048;-66
2022/06/30 04:16:37;;;;;;;;;14.75;13.50;;;28.65;97519.26;;;;119023;1190;25109;-65
2022/06/30 04:19:06;;;;;;;;;14.50;12.25;;;28.71;97523.89;;;;119269;1187;25115;-65
2022/06/30 04:21:33;;;;;;;;;17.50;10.50;;;28.75;97526.94;;;;119167;1189;24927;-63
2022/06/30 04:24:01;;;;;;;;;16.00;15.00;;;28.76;97527.45;;;;119153;1188;24970;-61
2022/06/30 04:26:29;;;;;;;;;14.00;12.75;;;28.78;97527.80;;;;119147;1188;25379;-63
2022/06/30 04:28:57;;;;;;;;;15.75;13.00;;;28.83;97526.72;;;;118991;1188;25600;-67
2022/06/30 04:34:12;;;;;;;;;17.25;15.00;;;28.91;97530.49;;;;119215;1187;25190;-64
2022/06/30 04:36:40;;;;;;;;;15.00;14.75;;;28.91;97531.98;;;;119297;1187;25523;-74
2022/06/30 04:39:08;;;;;;;;;20.00;14.25;;;28.86;97537.00;;;;119302;1187;25534;-60
2022/06/30 04:41:36;;;;;;;;;16.00;14.50;;;28.88;97538.10;;;;119144;1187;25396;-64
2022/06/30 04:44:05;;;;;;;;;15.50;14.50;;;28.86;97543.02;;;;119211;1187;25126;-68
2022/06/30 04:46:33;;;;;;;;;15.75;12.25;;;28.87;97543.97;;;;119171;1187;25174;-68
2022/06/30 04:49:01;;;;;;;;;16.00;12.50;;;28.89;97544.21;;;;119164;1187;25502;-64
2022/06/30 04:51:29;;;;;;;;;19.00;14.50;;;28.87;97542.77;;;;119299;1187;25426;-68
2022/06/30 04:53:58;;;;;;;;;18.00;16.25;;;28.86;97544.64;;;;119052;1189;25254;-65
2022/06/30 04:56:26;;;;;;;;;35.50;22.75;;;28.85;97545.54;;;;119228;1188;26935;-62
2022/06/30 04:58:54;;;;;;;;;38.50;22.50;;;28.87;97543.20;;;;119038;1189;25282;-64
2022/06/30 05:01:22;;;;;;;;;23.75;15.25;;;28.86;97542.33;;;;119260;1187;24877;-63
2022/06/30 05:03:50;;;;;;;;;30.00;18.67;;;28.89;97541.46;;;;119260;1186;25070;-63
2022/06/30 05:06:18;;;;;;;;;26.67;17.33;;;28.88;97537.38;;;;119248;1187;25324;-63
2022/06/30 05:08:47;;;;;;;;;31.25;15.00;;;28.91;97541.33;;;;119277;1188;25525;-62
2022/06/30 05:11:15;;;;;;;;;27.25;20.75;;;28.89;97540.09;;;;119255;1188;25521;-63
2022/06/30 05:13:43;;;;;;;;;46.00;30.25;;;28.93;97547.11;;;;119452;1187;25786;-63
2022/06/30 05:16:11;;;;;;;;;45.50;28.50;;;29.30;97547.97;;;;119302;1187;25513;-63
2022/06/30 05:18:39;;;;;;;;;30.50;18.00;;;29.25;97553.84;;;;119301;1188;25294;-64
2022/06/30 05:21:07;;;;;;;;;39.00;26.25;;;29.16;97558.56;;;;119265;1188;25418;-63
2022/06/30 05:23:35;;;;;;;;;36.75;26.00;;;29.08;97556.16;;;;119299;1186;25121;-63
2022/06/30 05:28:49;;;;;;;;;28.50;19.25;;;29.03;97552.69;;;;119294;1186;25714;-66
2022/06/30 05:31:21;;;;;;;;;29.00;20.75;;;29.00;97554.45;;;;119292;1187;25032;-66
2022/06/30 05:33:49;;;;;;;;;34.25;25.25;;;28.99;97551.66;;;;119131;1188;26420;-65
2022/06/30 05:36:17;;;;;;;;;33.75;19.75;;;28.98;97556.14;;;;119305;1187;25088;-64
2022/06/30 05:38:45;;;;;;;;;40.25;20.50;;;28.97;97554.98;;;;119291;1187;25416;-65
2022/06/30 05:41:13;;;;;;;;;35.75;21.75;;;28.95;97555.84;;;;119302;1187;25051;-63
2022/06/30 05:43:45;;;;;;;;;30.00;20.00;;;28.97;97557.98;;;;119104;1187;25476;-65
2022/06/30 05:46:13;;;;;;;;;41.50;22.75;;;28.97;97558.36;;;;119286;1188;25776;-62
2022/06/30 05:48:41;;;;;;;;;34.25;23.00;;;28.96;97560.59;;;;119307;1187;25555;-65
2022/06/30 05:51:13;;;;;;;;;48.00;30.50;;;28.97;97559.64;;;;119284;1187;25849;-66
2022/06/30 05:53:41;;;;;;;;;33.25;27.00;;;28.97;97561.08;;;;119297;1187;25041;-65
2022/06/30 05:56:09;;;;;;;;;38.33;27.00;;;28.97;97561.80;;;;119303;1188;25026;-63
2022/06/30 05:58:37;;;;;;;;;35.00;23.25;;;28.96;97559.47;;;;119277;1187;25454;-63
2022/06/30 06:01:05;;;;;;;;;29.50;17.00;;;28.96;97560.31;;;;119305;1187;25244;-63
2022/06/30 06:03:33;;;;;;;;;36.00;22.75;;;28.96;97559.88;;;;119285;1187;25307;-64
2022/06/30 06:06:00;;;;;;;;;22.75;18.25;;;28.96;97562.39;;;;119292;1187;25183;-64
2022/06/30 06:08:28;;;;;;;;;29.25;18.50;;;28.96;97563.38;;;;119172;1187;25356;-66
2022/06/30 06:10:56;;;;;;;;;25.50;21.50;;;28.96;97564.66;;;;119170;1187;24921;-63
2022/06/30 06:13:24;;;;;;;;;28.67;19.67;;;28.96;97560.45;;;;119282;1187;25247;-63
2022/06/30 06:15:52;;;;;;;;;17.67;16.00;;;28.96;97559.02;;;;119291;1188;24703;-64
2022/06/30 06:18:20;;;;;;;;;28.75;23.00;;;28.97;97559.41;;;;119325;1188;25194;-63
2022/06/30 06:20:48;;;;;;;;;23.00;17.25;;;28.98;97560.54;;;;119307;1187;25254;-64
2022/06/30 06:23:36;;;;;;;;;30.75;22.25;;;29.05;97565.25;;;;119286;1187;24989;-63
2022/06/30 06:26:04;;;;;;;;;24.25;18.75;;;29.06;97568.30;;;;119234;1188;25409;-65
2022/06/30 06:31:18;;;;;;;;;24.00;17.00;;;29.16;97573.67;;;;119347;1187;25602;-64
2022/06/30 06:33:48;;;;;;;;;23.25;20.50;;;29.10;97572.39;;;;119063;1189;25677;-67
2022/06/30 06:36:16;;;;;;;;;21.75;19.25;;;29.12;97572.85;;;;119336;1186;25305;-67
2022/06/30 06:38:44;;;;;;;;;22.50;17.75;;;29.09;97575.59;;;;119370;1188;25012;-66
2022/06/30 06:41:12;;;;;;;;;24.00;18.25;;;29.07;97574.73;;;;119377;1187;25532;-67
2022/06/30 06:43:40;;;;;;;;;21.00;15.75;;;29.07;97579.44;;;;119405;1187;25019;-67
2022/06/30 06:46:08;;;;;;;;;20.25;18.00;;;29.07;97577.90;;;;119391;1186;25398;-67
2022/06/30 06:48:36;;;;;;;;;23.75;19.50;;;29.05;97579.56;;;;119368;1186;25306;-67
2022/06/30 06:51:04;;;;;;;;;21.75;15.00;;;29.04;97581.44;;;;119340;1187;24756;-68
2022/06/30 06:53:32;;;;;;;;;23.00;17.00;;;29.08;97579.55;;;;119245;1187;25286;-75
2022/06/30 06:56:00;;;;;;;;;28.25;23.00;;;29.13;97584.20;;;;118976;1188;25493;-61
2022/06/30 06:58:29;;;;;;;;;20.75;16.25;;;29.19;97583.09;;;;119225;1187;25409;-61
2022/06/30 07:00:58;;;;;;;;;21.25;17.50;;;29.21;97586.08;;;;118911;1189;25963;-62
2022/06/30 07:03:26;;;;;;;;;26.00;17.25;;;29.25;97585.70;;;;119169;1187;25758;-61
2022/06/30 07:05:54;;;;;;;;;22.50;17.75;;;29.27;97586.45;;;;118984;1187;24992;-64
2022/06/30 07:08:22;;;;;;;;;18.75;14.25;;;29.27;97587.80;;;;119195;1188;25661;-60
2022/06/30 07:10:50;;;;;;;;;20.00;18.00;;;29.32;97589.70;;;;119197;1187;25682;-61
2022/06/30 07:13:18;;;;;;;;;16.75;13.75;;;29.35;97587.07;;;;118933;1187;24721;-63
2022/06/30 07:15:46;;;;;;;;;19.25;18.00;;;29.38;97584.70;;;;119181;1188;25493;-61
2022/06/30 07:18:14;;;;;;;;;18.00;17.00;;;29.45;97584.16;;;;119177;1186;25431;-62
2022/06/30 07:20:42;;;;;;;;;19.00;16.25;;;29.47;97583.08;;;;118933;1189;25166;-62
2022/06/30 07:23:10;;;;;;;;;26.50;19.00;;;29.47;97585.48;;;;119222;1186;25479;-62
2022/06/30 07:25:57;;;;;;;;;18.50;17.50;;;29.59;97583.30;;;;119212;1186;25564;-60
2022/06/30 07:28:26;;;;;;;;;21.67;17.67;;;29.61;97577.52;;;;118997;1189;25689;-61
2022/06/30 07:31:15;;;;;;;;;19.25;14.50;;;29.71;97578.92;;;;119210;1187;25237;-60
2022/06/30 07:33:44;;;;;;;;;11.25;10.50;;;29.73;97580.39;;;;119211;1187;25429;-60
2022/06/30 07:36:12;;;;;;;;;16.50;16.25;;;29.71;97579.04;;;;118995;1188;25507;-62
2022/06/30 07:38:41;;;;;;;;;19.00;15.50;;;29.71;97574.97;;;;119171;1187;24852;-60
2022/06/30 07:41:09;;;;;;;;;21.50;18.75;;;29.75;97572.80;;;;119199;1187;24872;-62
2022/06/30 07:43:38;;;;;;;;;22.00;19.25;;;29.76;97569.81;;;;119201;1187;25440;-60
2022/06/30 07:46:07;;;;;;;;;19.25;15.50;;;29.78;97568.01;;;;119216;1187;24739;-67
2022/06/30 07:48:36;;;;;;;;;18.50;16.50;;;29.80;97566.54;;;;118929;1189;25639;-64
2022/06/30 07:51:05;;;;;;;;;19.75;16.25;;;29.81;97562.11;;;;119198;1188;25906;-61
2022/06/30 07:53:33;;;;;;;;;16.00;15.00;;;29.82;97557.71;;;;119234;1186;24930;-62
2022/06/30 07:56:01;;;;;;;;;20.50;14.75;;;29.86;97552.94;;;;119221;1187;24872;-61
2022/06/30 07:58:29;;;;;;;;;17.00;13.25;;;29.88;97550.52;;;;119002;1187;24950;-62
2022/06/30 08:00:56;;;;;;;;;19.75;17.50;;;29.87;97550.86;;;;119166;1186;25106;-66
2022/06/30 08:03:25;;;;;;;;;16.00;16.00;;;29.91;97552.48;;;;119211;1187;25402;-63
2022/06/30 08:05:53;;;;;;;;;20.00;16.75;;;29.91;97552.02;;;;119007;1189;25722;-64
2022/06/30 08:08:21;;;;;;;;;17.25;14.25;;;29.90;97550.25;;;;119223;1187;25584;-63
2022/06/30 08:10:49;;;;;;;;;17.50;14.75;;;29.89;97547.38;;;;119233;1186;25345;-64
2022/06/30 08:13:17;;;;;;;;;16.25;12.50;;;29.91;97549.66;;;;119219;1187;25771;-63
2022/06/30 08:15:45;;;;;;;;;18.00;14.00;;;29.90;97549.41;;;;119215;1188;25034;-64
2022/06/30 08:18:14;;;;;;;;;17.00;14.75;;;29.89;97545.59;;;;119215;1188;25410;-60
2022/06/30 08:20:42;;;;;;;;;20.00;17.00;;;29.88;97545.06;;;;119218;1187;24889;-61
2022/06/30 08:23:09;;;;;;;;;16.00;14.67;;;29.87;97547.98;;;;119113;1187;25691;-60
2022/06/30 08:25:37;;;;;;;;;18.50;16.00;;;29.93;97545.11;;;;119232;1187;25896;-61
2022/06/30 08:28:05;;;;;;;;;14.25;12.50;;;29.93;97544.48;;;;119209;1187;25603;-61
2022/06/30 08:30:33;;;;;;;;;18.25;12.50;;;29.95;97539.90;;;;119192;1188;25529;-61
2022/06/30 08:33:01;;;;;;;;;16.25;15.50;;;29.95;97536.77;;;;119189;1187;25991;-62
2022/06/30 08:35:29;;;;;;;;;13.00;12.50;;;29.99;97535.29;;;;119199;1187;24811;-62
2022/06/30 08:38:17;;;;;;;;;18.25;15.50;;;30.05;97534.19;;;;119226;1188;24879;-60
2022/06/30 08:43:34;;;;;;;;;14.75;14.00;;;30.15;97530.96;;;;119206;1186;25488;-58
2022/06/30 08:46:02;;;;;;;;;16.25;13.00;;;30.13;97528.02;;;;118995;1188;25406;-60
2022/06/30 08:48:30;;;;;;;;;13.75;11.25;;;30.13;97524.48;;;;119014;1187;25610;-62
2022/06/30 08:51:05;;;;;;;;;15.25;14.75;;;30.13;97522.64;;;;119206;1187;25086;-62
2022/06/30 08:53:52;;;;;;;;;12.25;11.75;;;30.14;97523.45;;;;119202;1187;25997;-63
2022/06/30 08:56:20;;;;;;;;;15.00;12.75;;;30.19;97520.02;;;;119192;1187;25205;-62
2022/06/30 08:58:49;;;;;;;;;17.75;12.25;;;30.17;97518.71;;;;119204;1187;25005;-59
2022/06/30 09:01:18;;;;;;;;;14.00;11.25;;;30.16;97518.92;;;;119014;1188;24823;-62
2022/06/30 09:03:47;;;;;;;;;13.50;12.75;;;30.18;97517.05;;;;119214;1187;25514;-65
2022/06/30 09:06:15;;;;;;;;;12.50;12.50;;;30.21;97516.08;;;;119221;1187;25302;-64
2022/06/30 09:08:57;;;;;;;;;17.75;14.25;;;30.27;97516.26;;;;119191;1187;25343;-59
2022/06/30 09:11:51;;;;;;;;;12.00;12.00;;;30.28;97509.87;;;;119220;1188;26333;-60
2022/06/30 09:14:41;;;;;;;;;11.00;11.00;;;30.29;97507.20;;;;119213;1187;26023;-61
2022/06/30 09:17:12;;;;;;;;;11.67;11.67;;;30.28;97502.20;;;;119274;1187;25661;-61
2022/06/30 09:20:00;;;;;;;;;15.00;11.75;;;30.32;97501.26;;;;119207;1188;24909;-64
2022/06/30 09:22:37;;;;;;;;;11.25;10.75;;;30.37;97494.23;;;;119289;1187;25552;-63
2022/06/30 09:25:20;;;;;;;;;12.00;10.00;;;30.42;97494.39;;;;119214;1187;25361;-70
2022/06/30 09:27:48;;;;;;;;;16.50;14.25;;;30.49;97493.67;;;;119200;1187;25095;-74
2022/06/30 09:30:19;;;;;;;;;17.25;15.25;;;30.42;97490.01;;;;119200;1186;25375;-73
2022/06/30 09:32:53;;;;;;;;;11.25;9.00;;;30.42;97489.55;;;;119188;1186;25592;-76
2022/06/30 09:35:26;;;;;;;;;10.75;10.75;;;30.44;97485.67;;;;119196;1187;25672;-75
2022/06/30 09:38:03;;;;;;;;;14.25;14.25;;;30.45;97485.23;;;;119171;1187;25488;-73
2022/06/30 09:40:35;;;;;;;;;10.00;10.00;;;30.48;97481.64;;;;119199;1187;25135;-73
2022/06/30 09:43:04;;;;;;;;;12.50;11.00;;;30.49;97477.35;;;;119189;1188;25621;-74
2022/06/30 09:45:37;;;;;;;;;10.00;9.00;;;30.48;97475.03;;;;118985;1188;25282;-72
2022/06/30 09:48:06;;;;;;;;;13.75;11.75;;;30.48;97479.85;;;;119171;1187;25434;-74
2022/06/30 09:50:35;;;;;;;;;13.50;13.50;;;30.50;97475.30;;;;118991;1187;25439;-71
2022/06/30 09:53:06;;;;;;;;;11.50;11.00;;;30.55;97474.89;;;;119175;1188;25007;-70
2022/06/30 09:55:42;;;;;;;;;18.75;12.50;;;30.52;97472.11;;;;119161;1187;25089;-73
2022/06/30 09:58:13;;;;;;;;;15.00;13.67;;;30.54;97470.50;;;;119177;1186;24931;-70
2022/06/30 10:00:50;;;;;;;;;14.50;14.50;;;30.55;97463.34;;;;119190;1187;24768;-72
2022/06/30 10:03:20;;;;;;;;;22.25;16.00;;;30.55;97471.25;;;;118944;1188;25675;-70
2022/06/30 10:05:51;;;;;;;;;18.00;16.50;;;30.54;97466.46;;;;119202;1187;24791;-69
2022/06/30 10:08:19;;;;;;;;;13.50;11.50;;;30.53;97464.58;;;;118995;1189;25033;-70
2022/06/30 10:10:47;;;;;;;;;16.67;16.33;;;30.54;97467.33;;;;119017;1189;25470;-70
2022/06/30 10:13:17;;;;;;;;;13.00;12.75;;;30.52;97459.35;;;;118979;1189;25198;-72
2022/06/30 10:15:54;;;;;;;;;18.50;16.00;;;30.54;97455.52;;;;118973;1188;24756;-70
2022/06/30 10:18:26;;;;;;;;;18.25;18.25;;;30.56;97453.18;;;;118999;1189;24889;-70
2022/06/30 10:20:55;;;;;;;;;17.50;16.75;;;30.57;97452.25;;;;118903;1190;25746;-68
2022/06/30 10:23:23;;;;;;;;;16.25;16.25;;;30.57;97450.86;;;;118955;1189;25486;-69
2022/06/30 10:25:55;;;;;;;;;18.00;16.25;;;30.60;97450.13;;;;119199;1188;25151;-66
2022/06/30 10:28:25;;;;;;;;;14.25;13.25;;;30.64;97450.98;;;;119095;1188;24922;-67
2022/06/30 10:31:17;;;;;;;;;18.75;14.75;;;30.62;97438.55;;;;119230;1188;25346;-66
2022/06/30 10:33:55;;;;;;;;;17.75;16.25;;;30.62;97437.64;;;;118944;1187;25183;-76
2022/06/30 10:36:29;;;;;;;;;17.75;14.25;;;30.67;97433.18;;;;118957;1188;24809;-76
2022/06/30 10:39:11;;;;;;;;;17.75;15.25;;;30.69;97424.34;;;;118960;1188;24836;-73
2022/06/30 10:41:47;;;;;;;;;16.67;16.67;;;30.71;97418.08;;;;119148;1186;24813;-74
2022/06/30 10:44:21;;;;;;;;;16.25;15.00;;;30.74;97417.80;;;;119181;1187;25766;-72
2022/06/30 10:46:56;;;;;;;;;18.25;18.25;;;30.77;97415.77;;;;119208;1187;25538;-73
2022/06/30 10:49:26;;;;;;;;;21.00;16.25;;;30.78;97413.50;;;;119184;1186;26029;-65
2022/06/30 10:51:55;;;;;;;;;20.00;16.75;;;30.82;97412.30;;;;119191;1187;24896;-70
2022/06/30 10:54:32;;;;;;;;;18.25;13.75;;;30.80;97413.27;;;;119218;1186;25600;-72
2022/06/30 10:57:01;;;;;;;;;20.00;17.50;;;30.85;97411.11;;;;119191;1187;25159;-70
2022/06/30 10:59:36;;;;;;;;;18.25;14.00;;;30.86;97407.48;;;;119243;1187;24981;-69
2022/06/30 11:02:25;;;;;;;;;18.25;17.25;;;30.90;97406.49;;;;118983;1188;25511;-70
2022/06/30 11:05:21;;;;;;;;;22.00;17.25;;;30.98;97407.39;;;;119199;1187;25676;-69
2022/06/30 11:07:50;;;;;;;;;19.75;18.00;;;31.03;97405.60;;;;119196;1187;25647;-68
2022/06/30 11:10:19;;;;;;;;;18.00;17.25;;;31.00;97403.86;;;;118984;1188;26406;-70
2022/06/30 11:12:52;;;;;;;;;15.50;13.25;;;30.99;97404.64;;;;118972;1188;24986;-68
2022/06/30 11:15:21;;;;;;;;;9.50;8.50;;;31.02;97407.84;;;;118907;1189;24772;-77
2022/06/30 11:17:51;;;;;;;;;17.50;13.75;;;31.01;97405.78;;;;119139;1187;25147;-69
2022/06/30 11:20:20;;;;;;;;;16.00;14.75;;;31.01;97406.49;;;;118899;1190;25479;-68
2022/06/30 11:22:48;;;;;;;;;13.75;13.75;;;31.01;97407.22;;;;119156;1187;24719;-71
2022/06/30 11:28:13;;;;;;;;;17.50;16.00;;;31.09;97411.42;;;;119015;1188;25383;-74
2022/06/30 11:30:43;;;;;;;;;13.75;13.00;;;31.10;97410.54;;;;118991;1187;25091;-77
2022/06/30 11:33:11;;;;;;;;;13.00;13.00;;;31.15;97410.11;;;;119202;1187;25234;-68
2022/06/30 11:35:40;;;;;;;;;14.00;13.00;;;31.14;97408.98;;;;119217;1188;25390;-67
2022/06/30 11:38:08;;;;;;;;;11.25;9.75;;;31.12;97400.84;;;;119223;1187;25566;-76
2022/06/30 11:40:36;;;;;;;;;13.50;12.25;;;31.08;97397.02;;;;119176;1188;25560;-69
2022/06/30 11:43:21;;;;;;;;;15.00;15.00;;;31.10;97391.09;;;;118977;1188;24791;-68
2022/06/30 11:46:05;;;;;;;;;16.25;15.00;;;31.15;97384.05;;;;118955;1188;25436;-65
2022/06/30 11:48:35;;;;;;;;;9.75;9.75;;;31.21;97387.50;;;;119215;1188;26515;-72
2022/06/30 11:51:03;;;;;;;;;13.25;12.25;;;31.20;97387.11;;;;119184;1188;24912;-78
2022/06/30 11:53:47;;;;;;;;;12.00;12.00;;;31.23;97380.93;;;;118941;1187;25493;-68
2022/06/30 11:56:15;;;;;;;;;13.75;12.75;;;31.31;97375.48;;;;118977;1188;25298;-72
2022/06/30 11:58:42;;;;;;;;;12.00;12.00;;;31.33;97372.88;;;;119181;1188;25541;-75
2022/06/30 12:01:12;;;;;;;;;15.25;14.25;;;31.36;97370.45;;;;119186;1187;24768;-72
2022/06/30 12:03:43;;;;;;;;;14.33;11.33;;;31.37;97369.46;;;;118963;1188;24860;-71
2022/06/30 12:06:11;;;;;;;;;14.00;12.67;;;31.35;97371.21;;;;119144;1187;25017;-71
2022/06/30 12:08:39;;;;;;;;;18.00;16.25;;;31.34;97372.45;;;;118895;1190;25135;-75
2022/06/30 12:11:08;;;;;;;;;11.75;10.75;;;31.36;97375.65;;;;119158;1187;25251;-73
2022/06/30 12:13:36;;;;;;;;;18.75;14.75;;;31.35;97377.83;;;;118876;1190;25190;-73
2022/06/30 12:16:04;;;;;;;;;11.50;10.50;;;31.38;97370.90;;;;119157;1188;25155;-73
2022/06/30 12:18:32;;;;;;;;;13.25;12.25;;;31.45;97370.46;;;;118989;1188;26043;-70
2022/06/30 12:21:00;;;;;;;;;19.00;14.75;;;31.44;97372.36;;;;119002;1187;25079;-69
2022/06/30 12:23:28;;;;;;;;;12.75;12.75;;;31.48;97367.89;;;;119209;1187;25053;-72